createdAt,value
2024-05-09T00:01:24.418Z,1.88
2024-05-09T00:03:56.259Z,1.90
2024-05-09T00:06:35.364Z,2.55
2024-05-09T00:09:07.222Z,2.13
2024-05-09T00:11:42.694Z,2.13
2024-05-09T00:14:13.543Z,2.15
2024-05-09T00:16:44.543Z,2.10
2024-05-09T00:19:15.825Z,2.35
2024-05-09T00:21:55.970Z,2.20
2024-05-09T00:24:26.725Z,1.67
2024-05-09T00:26:57.502Z,1.98
2024-05-09T00:29:30.974Z,2.28
2024-05-09T00:32:01.573Z,1.90
2024-05-09T00:34:31.908Z,2.10
2024-05-09T00:37:05.747Z,2.03
2024-05-09T00:39:36.396Z,1.77
2024-05-09T00:42:07.328Z,1.80
2024-05-09T00:44:37.608Z,2.67
2024-05-09T00:47:10.526Z,1.90
2024-05-09T00:49:41.149Z,1.98
2024-05-09T00:52:14.719Z,1.83
2024-05-09T00:54:45.821Z,2.20
2024-05-09T00:57:16.776Z,1.67
2024-05-09T00:59:47.051Z,1.58
2024-05-09T01:02:18.945Z,2.30
2024-05-09T01:04:50.268Z,2.20
2024-05-09T01:07:23.858Z,2.22
2024-05-09T01:09:56.567Z,1.90
2024-05-09T01:12:27.698Z,1.83
2024-05-09T01:14:58.182Z,2.28
2024-05-09T01:17:28.913Z,2.08
2024-05-09T01:20:01.904Z,2.00
2024-05-09T01:22:37.143Z,2.60
2024-05-09T01:25:10.337Z,1.90
2024-05-09T01:27:42.793Z,2.50
2024-05-09T01:30:17.381Z,2.25
2024-05-09T01:32:52.065Z,2.53
2024-05-09T01:35:23.883Z,1.95
2024-05-09T01:37:54.346Z,1.70
2024-05-09T01:40:36.327Z,2.00
2024-05-09T01:43:11.056Z,1.90
2024-05-09T01:45:42.399Z,1.90
2024-05-09T01:48:12.959Z,1.90
2024-05-09T01:50:43.802Z,1.88
2024-05-09T01:53:17.284Z,1.55
2024-05-09T01:55:50.222Z,2.00
2024-05-09T01:58:20.719Z,1.38
2024-05-09T02:00:51.555Z,1.73
2024-05-09T02:03:21.826Z,1.70
2024-05-09T02:05:52.700Z,1.45
2024-05-09T02:08:24.505Z,1.80
2024-05-09T02:10:57.330Z,1.65
2024-05-09T02:13:27.562Z,1.45
2024-05-09T02:15:58.881Z,1.70
2024-05-09T02:18:28.962Z,1.35
2024-05-09T02:20:59.490Z,1.48
2024-05-09T02:23:29.996Z,1.35
2024-05-09T02:26:02.929Z,1.45
2024-05-09T02:28:32.999Z,1.73
2024-05-09T02:31:03.133Z,1.58
2024-05-09T02:33:33.855Z,1.50
2024-05-09T02:36:04.506Z,1.30
2024-05-09T02:38:32.098Z,2.15
2024-05-09T02:41:05.162Z,2.20
2024-05-09T02:43:32.931Z,2.75
2024-05-09T02:46:03.562Z,2.10
2024-05-09T02:48:31.549Z,1.92
2024-05-09T02:51:04.065Z,1.90
2024-05-09T02:53:31.700Z,2.40
2024-05-09T02:56:04.630Z,1.80
2024-05-09T02:58:32.087Z,1.98
2024-05-09T03:01:02.280Z,1.80
2024-05-09T03:03:30.600Z,2.10
2024-05-09T03:06:05.891Z,2.10
2024-05-09T03:08:35.257Z,2.30
2024-05-09T03:11:08.782Z,1.95
2024-05-09T03:13:41.494Z,2.00
2024-05-09T03:16:11.928Z,2.30
2024-05-09T03:18:40.937Z,2.13
2024-05-09T03:21:11.510Z,2.03
2024-05-09T03:23:41.110Z,1.60
2024-05-09T03:28:46.961Z,2.35
2024-05-09T03:31:17.218Z,2.30
2024-05-09T03:33:44.913Z,2.30
2024-05-09T03:36:15.416Z,1.65
2024-05-09T03:38:45.587Z,1.90
2024-05-09T03:41:18.310Z,1.73
2024-05-09T03:43:49.010Z,2.63
2024-05-09T03:46:16.541Z,2.53
2024-05-09T03:48:47.248Z,2.35
2024-05-09T03:51:14.916Z,2.13
2024-05-09T03:53:45.102Z,2.65
2024-05-09T03:56:15.379Z,2.15
2024-05-09T03:58:46.066Z,2.42
2024-05-09T04:01:13.585Z,1.55
2024-05-09T04:03:44.043Z,1.92
2024-05-09T04:06:11.667Z,2.20
2024-05-09T04:08:41.846Z,2.30
2024-05-09T04:11:09.474Z,2.13
2024-05-09T04:13:43.104Z,2.97
2024-05-09T04:16:13.789Z,2.30
2024-05-09T04:18:44.063Z,2.22
2024-05-09T04:21:16.956Z,2.28
2024-05-09T04:23:45.247Z,2.33
2024-05-09T04:26:15.676Z,2.13
2024-05-09T04:28:45.945Z,2.40
2024-05-09T04:31:16.145Z,2.63
2024-05-09T04:33:44.068Z,2.80
2024-05-09T04:36:14.762Z,2.20
2024-05-09T04:38:42.235Z,3.38
2024-05-09T04:41:12.459Z,2.42
2024-05-09T04:43:41.641Z,2.40
2024-05-09T04:46:14.326Z,2.83
2024-05-09T04:48:41.910Z,2.40
2024-05-09T04:51:12.468Z,3.25
2024-05-09T04:53:40.197Z,3.70
2024-05-09T04:56:12.421Z,3.83
2024-05-09T04:58:40.011Z,4.03
2024-05-09T05:01:13.885Z,4.10
2024-05-09T05:03:42.089Z,4.15
2024-05-09T05:06:12.417Z,4.63
2024-05-09T05:08:40.255Z,4.65
2024-05-09T05:11:11.432Z,4.82
2024-05-09T05:13:41.529Z,4.10
2024-05-09T05:16:15.085Z,4.15
2024-05-09T05:18:44.444Z,4.15
2024-05-09T05:21:15.140Z,3.83
2024-05-09T05:23:43.100Z,4.63
2024-05-09T05:26:13.555Z,4.97
2024-05-09T05:28:41.080Z,4.18
2024-05-09T05:31:14.208Z,4.22
2024-05-09T05:33:42.102Z,3.92
2024-05-09T05:36:12.579Z,4.40
2024-05-09T05:38:40.177Z,4.80
2024-05-09T05:41:10.556Z,4.47
2024-05-09T05:43:38.435Z,3.55
2024-05-09T05:46:08.550Z,4.15
2024-05-09T05:48:38.705Z,3.95
2024-05-09T05:51:09.925Z,3.67
2024-05-09T05:53:40.189Z,3.53
2024-05-09T05:56:12.895Z,3.28
2024-05-09T13:36:31.343Z,0.50
2024-05-09T14:20:30.059Z,0.77
2024-05-09T18:25:34.418Z,0.80
2024-05-09T18:54:04.500Z,0.95
2024-05-09T18:56:33.215Z,1.08
2024-05-09T18:59:31.144Z,1.02
2024-05-09T19:03:14.925Z,1.40
2024-05-09T19:05:58.759Z,1.30
2024-05-09T19:08:49.505Z,1.15
2024-05-09T19:11:19.905Z,1.15
2024-05-09T19:13:47.500Z,1.38
2024-05-09T19:16:18.838Z,0.82
2024-05-09T19:18:46.750Z,1.20
2024-05-09T19:21:22.736Z,1.10
2024-05-09T19:23:52.446Z,0.80
2024-05-09T19:26:22.853Z,1.08
2024-05-09T19:28:53.171Z,1.33
2024-05-09T19:31:23.730Z,0.93
2024-05-09T19:33:53.947Z,0.75
2024-05-09T19:45:50.390Z,1.20
2024-05-09T20:00:12.087Z,0.95
2024-05-09T20:02:51.144Z,1.00
2024-05-09T20:05:21.780Z,0.90
2024-05-09T20:07:49.722Z,1.02
2024-05-09T20:10:32.704Z,0.88
2024-05-09T20:13:11.786Z,0.98
2024-05-09T20:15:42.036Z,0.95
2024-05-09T20:18:13.799Z,1.00
2024-05-09T20:20:45.339Z,1.13
2024-05-09T20:23:16.201Z,0.88
2024-05-09T20:25:47.884Z,1.30
2024-05-09T20:28:15.570Z,0.93
2024-05-09T20:30:46.148Z,1.10
2024-05-09T20:33:17.822Z,1.85
2024-05-09T20:35:48.354Z,1.33
2024-05-09T20:38:15.901Z,0.90
2024-05-09T20:40:47.376Z,1.10
2024-05-09T20:43:15.221Z,0.93
2024-05-09T20:45:48.132Z,1.03
2024-05-09T20:48:18.484Z,1.20
2024-05-09T20:50:52.212Z,1.10
2024-05-09T20:53:20.081Z,0.93
2024-05-09T20:55:50.607Z,1.00
2024-05-09T20:58:18.399Z,1.05
2024-05-09T21:00:49.097Z,1.30
2024-05-09T21:03:19.656Z,0.95
2024-05-09T21:05:51.174Z,0.75
2024-05-09T21:08:18.802Z,1.00
2024-05-09T21:10:54.459Z,0.73
2024-05-09T21:13:22.391Z,1.00
2024-05-09T21:15:53.861Z,1.30
2024-05-09T21:18:23.986Z,1.65
2024-05-09T21:20:54.134Z,1.02
2024-05-09T21:23:24.396Z,1.00
2024-05-09T21:25:54.528Z,1.10
2024-05-09T21:28:23.221Z,1.15
2024-05-09T21:30:56.111Z,1.20
2024-05-09T21:33:26.347Z,1.05
2024-05-09T21:35:57.419Z,1.15
2024-05-09T21:38:28.624Z,0.95
2024-05-09T21:41:00.079Z,1.10
2024-05-09T21:43:29.692Z,0.70
2024-05-09T21:46:00.119Z,1.40
2024-05-09T21:48:30.946Z,1.10
2024-05-09T21:51:01.202Z,0.98
2024-05-09T21:53:29.647Z,1.20
2024-05-09T21:56:09.138Z,1.40
2024-05-09T21:58:40.575Z,1.25
2024-05-09T22:01:09.144Z,1.55
2024-05-09T22:03:42.389Z,0.90
2024-05-09T22:06:09.886Z,1.05
2024-05-09T22:08:41.584Z,1.02
2024-05-09T22:11:10.974Z,1.45
2024-05-09T22:13:41.120Z,1.38
2024-05-09T22:16:08.918Z,1.48
2024-05-09T22:18:41.889Z,1.25
2024-05-09T22:21:14.042Z,1.00
2024-05-09T22:23:45.506Z,1.20
2024-05-09T22:26:13.044Z,1.10
2024-05-09T22:28:43.280Z,0.82
2024-05-09T22:31:11.382Z,1.17
2024-05-09T22:33:47.821Z,1.15
2024-05-09T22:36:19.243Z,1.25
2024-05-09T22:38:51.394Z,1.27
2024-05-09T22:41:19.181Z,1.10
2024-05-09T22:43:49.567Z,0.90
2024-05-09T22:46:17.197Z,0.70
2024-05-09T22:48:47.775Z,1.05
2024-05-09T22:51:15.794Z,0.85
2024-05-09T22:53:48.485Z,1.02
2024-05-09T22:56:26.762Z,0.93
2024-05-09T22:59:03.321Z,0.63
2024-05-09T23:01:31.201Z,0.80
2024-05-09T23:04:02.513Z,1.08
2024-05-09T23:06:31.710Z,0.73
2024-05-09T23:09:08.204Z,0.87
2024-05-09T23:11:36.558Z,1.17
2024-05-09T23:14:08.826Z,1.00
2024-05-09T23:16:36.308Z,0.93
2024-05-09T23:19:07.240Z,1.05
2024-05-09T23:21:38.451Z,0.90
2024-05-09T23:24:12.085Z,0.77
2024-05-09T23:26:42.410Z,1.25
2024-05-09T23:29:12.615Z,0.90
2024-05-09T23:31:41.532Z,1.38
2024-05-09T23:34:14.523Z,0.80
2024-05-09T23:36:44.423Z,1.00
2024-05-09T23:39:17.411Z,1.50
2024-05-09T23:41:46.074Z,1.38
2024-05-09T23:44:16.188Z,1.17
2024-05-09T23:54:24.476Z,1.15
2024-05-09T23:57:21.652Z,1.40
